Time;durP1;ratioP1;P1;durP2;ratioP2;P2;SDS_P1;SDS_P2;PMS_P1;PMS_P2;Temp;Humidity;BMP_temperature;BMP_pressure;BME280_temperature;BME280_humidity;BME280_pressure;Samples;Min_cycle;Max_cycle;Signal;HPM_P1;HPM_P2
2023/12/24 00:01:07;;;;;;;0.60;0.60;;;8.90;99.90;;;;;;5015931;28;20092;-78
2023/12/24 00:03:34;;;;;;;3.30;0.80;;;8.80;99.90;;;;;;4997336;28;20056;-78
2023/12/24 00:06:01;;;;;;;0.50;0.50;;;8.80;99.90;;;;;;4991536;28;20053;-79
2023/12/24 00:08:31;;;;;;;2.30;0.75;;;8.90;99.90;;;;;;5011016;28;20133;-79
2023/12/24 00:10:58;;;;;;;;;;;8.90;99.90;;;;;;5015206;28;20052;-80
2023/12/24 00:13:26;;;;;;;0.82;0.80;;;8.90;99.90;;;;;;5018725;28;20381;-77
2023/12/24 00:15:53;;;;;;;3.33;0.73;;;8.80;99.90;;;;;;5015505;28;20100;-77
2023/12/24 00:18:19;;;;;;;2.40;0.60;;;8.80;99.90;;;;;;5019374;28;20092;-79
2023/12/24 00:20:47;;;;;;;0.80;0.45;;;8.80;99.90;;;;;;5013182;28;20042;-78
2023/12/24 00:23:13;;;;;;;2.03;0.60;;;8.80;99.90;;;;;;4999022;28;20045;-78
2023/12/24 00:25:40;;;;;;;0.63;0.57;;;8.80;99.90;;;;;;5012533;28;20046;-80
2023/12/24 00:28:07;;;;;;;1.48;1.27;;;8.80;99.90;;;;;;5022903;28;20085;-78
2023/12/24 00:30:34;;;;;;;1.48;0.77;;;8.80;99.90;;;;;;5002246;28;20046;-79
2023/12/24 00:33:01;;;;;;;1.92;0.80;;;8.70;99.90;;;;;;5019773;28;20038;-79
2023/12/24 00:35:28;;;;;;;1.00;0.60;;;8.70;99.90;;;;;;4996988;28;20046;-78
2023/12/24 00:37:58;;;;;;;2.17;0.75;;;8.70;99.90;;;;;;5016744;28;20409;-78
2023/12/24 00:40:25;;;;;;;1.42;0.60;;;8.70;99.90;;;;;;5012716;28;20061;-79
2023/12/24 00:42:52;;;;;;;0.82;0.60;;;8.70;99.90;;;;;;5016700;28;20128;-79
2023/12/24 00:45:19;;;;;;;1.60;0.80;;;8.70;99.90;;;;;;5019728;28;20061;-78
2023/12/24 00:47:46;;;;;;;0.93;0.50;;;8.70;99.90;;;;;;5014999;28;20054;-78
2023/12/24 00:50:13;;;;;;;1.55;0.50;;;8.70;99.90;;;;;;5018933;28;20056;-78
2023/12/24 00:52:40;;;;;;;1.35;0.60;;;8.70;99.90;;;;;;4999347;28;20054;-78
2023/12/24 00:55:07;;;;;;;2.80;0.68;;;8.80;99.90;;;;;;5015278;28;20151;-79
2023/12/24 00:57:36;;;;;;;2.53;0.90;;;8.80;99.90;;;;;;5011789;28;20074;-79
2023/12/24 01:00:07;;;;;;;1.13;0.77;;;8.80;99.90;;;;;;5007351;28;20551;-78
2023/12/24 01:02:34;;;;;;;1.00;0.50;;;8.80;99.90;;;;;;4993145;28;20058;-78
2023/12/24 01:05:01;;;;;;;0.70;0.70;;;8.80;99.90;;;;;;5003894;28;20045;-78
2023/12/24 01:07:28;;;;;;;0.68;0.60;;;8.80;99.90;;;;;;5008473;28;20050;-79
2023/12/24 01:09:55;;;;;;;1.70;0.80;;;8.80;99.90;;;;;;5014723;28;20080;-78
2023/12/24 01:12:22;;;;;;;0.75;0.60;;;8.80;99.90;;;;;;5002822;28;20057;-78
2023/12/24 01:14:48;;;;;;;1.45;0.75;;;8.80;99.90;;;;;;5015548;28;20077;-79
2023/12/24 01:17:15;;;;;;;0.60;0.60;;;8.80;99.90;;;;;;5011500;28;20082;-80
2023/12/24 01:19:43;;;;;;;0.98;0.60;;;8.80;99.90;;;;;;5012875;28;20092;-79
2023/12/24 01:22:10;;;;;;;1.75;0.70;;;8.90;99.90;;;;;;5021400;28;20042;-79
2023/12/24 01:24:37;;;;;;;2.83;0.70;;;8.80;99.90;;;;;;5020018;28;20490;-78
2023/12/24 01:27:04;;;;;;;2.60;0.55;;;8.80;99.90;;;;;;5019495;28;20484;-79
2023/12/24 01:29:31;;;;;;;0.63;0.60;;;8.80;99.90;;;;;;4999451;28;20085;-79
2023/12/24 01:31:58;;;;;;;1.42;0.68;;;8.80;99.90;;;;;;5013820;28;20136;-78
2023/12/24 01:34:24;;;;;;;0.57;0.57;;;8.80;99.90;;;;;;5013075;28;20051;-79
2023/12/24 01:36:51;;;;;;;1.25;0.70;;;8.80;99.90;;;;;;5022623;28;20055;-80
2023/12/24 01:39:20;;;;;;;0.50;0.50;;;8.80;99.90;;;;;;5011020;28;20050;-80
2023/12/24 01:41:47;;;;;;;1.35;0.60;;;8.80;99.90;;;;;;5003673;28;20046;-80
2023/12/24 01:44:14;;;;;;;0.60;0.50;;;8.70;99.90;;;;;;5019099;28;20049;-79
2023/12/24 01:46:41;;;;;;;0.98;0.50;;;8.80;99.90;;;;;;5019729;28;20050;-80
2023/12/24 01:49:08;;;;;;;0.65;0.50;;;8.70;99.90;;;;;;5014410;28;20071;-80
2023/12/24 01:51:35;;;;;;;0.95;0.43;;;8.70;99.90;;;;;;5020167;28;20053;-79
2023/12/24 01:54:02;;;;;;;2.28;0.70;;;8.70;99.90;;;;;;5014377;28;20042;-79
2023/12/24 01:56:31;;;;;;;1.30;0.60;;;8.70;99.90;;;;;;4998730;28;20074;-79
2023/12/24 01:58:59;;;;;;;1.27;0.60;;;8.60;99.90;;;;;;5019048;28;20044;-78
2023/12/24 02:01:27;;;;;;;2.28;0.68;;;8.70;99.90;;;;;;5014830;28;20140;-79
2023/12/24 02:03:55;;;;;;;0.82;0.55;;;8.70;99.90;;;;;;5018415;28;20081;-79
2023/12/24 02:06:23;;;;;;;0.73;0.60;;;8.70;99.90;;;;;;5012688;28;20104;-79
2023/12/24 02:08:50;;;;;;;0.70;0.60;;;8.70;99.90;;;;;;5023025;28;20050;-78
2023/12/24 02:11:17;;;;;;;0.60;0.60;;;8.70;99.90;;;;;;5010968;28;20053;-78
2023/12/24 02:13:44;;;;;;;0.70;0.50;;;8.80;99.90;;;;;;5020032;28;20053;-79
2023/12/24 02:16:14;;;;;;;0.95;0.60;;;8.80;99.90;;;;;;5007950;28;20041;-80
2023/12/24 02:18:41;;;;;;;0.52;0.52;;;8.80;99.90;;;;;;5018133;28;20137;-78
2023/12/24 02:21:08;;;;;;;0.60;0.60;;;8.80;99.90;;;;;;5015041;28;20045;-81
2023/12/24 02:23:35;;;;;;;0.70;0.50;;;8.80;99.90;;;;;;5014694;28;20046;-79
2023/12/24 02:26:25;;;;;;;2.15;0.60;;;8.80;99.90;;;;;;4993330;28;20051;-78
2023/12/24 02:28:59;;;;;;;1.42;0.68;;;8.80;99.90;;;;;;4975848;28;20046;-79
2023/12/24 02:31:31;;;;;;;0.55;0.50;;;8.80;99.90;;;;;;5014783;28;20046;-78
2023/12/24 02:34:01;;;;;;;0.88;0.52;;;8.80;99.90;;;;;;5011323;28;20045;-78
2023/12/24 02:36:29;;;;;;;0.50;0.50;;;8.90;99.90;;;;;;5012890;28;20042;-78
2023/12/24 02:38:57;;;;;;;0.43;0.40;;;8.90;99.90;;;;;;4990835;28;20764;-78
2023/12/24 02:41:24;;;;;;;0.73;0.50;;;8.90;99.90;;;;;;5012185;28;20096;-79
2023/12/24 02:43:51;;;;;;;0.68;0.68;;;8.90;99.90;;;;;;5011151;28;20073;-80
2023/12/24 02:46:18;;;;;;;0.60;0.40;;;8.90;99.90;;;;;;5017035;28;20129;-80
2023/12/24 02:48:44;;;;;;;0.68;0.60;;;8.90;99.90;;;;;;4989390;28;20046;-80
2023/12/24 02:51:11;;;;;;;0.50;0.43;;;8.90;99.90;;;;;;5014862;28;20042;-78
2023/12/24 02:53:38;;;;;;;0.77;0.50;;;9.00;99.90;;;;;;5009780;28;20512;-79
2023/12/24 02:56:05;;;;;;;0.82;0.57;;;8.90;99.90;;;;;;4996254;28;20056;-79
2023/12/24 02:58:32;;;;;;;0.95;0.57;;;8.90;99.90;;;;;;5009446;28;20061;-78
2023/12/24 03:00:58;;;;;;;0.50;0.50;;;9.00;99.90;;;;;;5018473;28;20069;-77
2023/12/24 03:03:25;;;;;;;1.90;0.40;;;8.90;99.90;;;;;;5009089;28;20042;-79
2023/12/24 03:05:52;;;;;;;0.85;0.40;;;8.90;99.90;;;;;;5011756;28;20172;-79
2023/12/24 03:08:19;;;;;;;0.80;0.50;;;8.90;99.90;;;;;;5014968;28;20050;-79
2023/12/24 03:10:45;;;;;;;0.43;0.40;;;8.90;99.90;;;;;;5008991;28;20137;-79
2023/12/24 03:13:13;;;;;;;2.15;0.70;;;8.90;99.90;;;;;;5002239;28;20052;-78
2023/12/24 03:15:39;;;;;;;0.90;0.50;;;8.90;99.90;;;;;;5007631;28;20050;-79
2023/12/24 03:18:06;;;;;;;0.65;0.47;;;9.00;99.90;;;;;;5013873;28;20097;-79
2023/12/24 03:20:33;;;;;;;1.05;0.45;;;8.90;99.90;;;;;;4988953;28;20047;-80
2023/12/24 03:23:00;;;;;;;1.30;0.30;;;9.00;99.90;;;;;;5029704;28;20464;-79
2023/12/24 03:25:26;;;;;;;1.25;0.43;;;9.00;99.90;;;;;;5009515;28;20055;-78
2023/12/24 03:27:53;;;;;;;3.08;0.50;;;9.00;99.90;;;;;;5020314;28;20054;-79
2023/12/24 03:30:20;;;;;;;1.58;0.50;;;8.90;99.90;;;;;;5010750;28;20513;-78
2023/12/24 03:32:47;;;;;;;0.30;0.30;;;8.90;99.90;;;;;;4999771;28;20050;-78
2023/12/24 03:35:13;;;;;;;0.73;0.50;;;9.00;99.90;;;;;;4992410;28;20448;-79
2023/12/24 03:37:40;;;;;;;1.65;0.50;;;9.00;99.90;;;;;;4999404;28;20457;-79
2023/12/24 03:40:07;;;;;;;1.08;0.60;;;9.00;99.90;;;;;;5012016;28;20527;-79
2023/12/24 03:42:34;;;;;;;0.40;0.40;;;9.00;99.90;;;;;;5013695;28;20057;-78
2023/12/24 03:45:02;;;;;;;0.50;0.50;;;9.00;99.90;;;;;;5017538;28;20055;-80
2023/12/24 03:47:29;;;;;;;0.30;0.30;;;9.00;99.90;;;;;;4999733;28;20046;-78
2023/12/24 03:49:56;;;;;;;1.20;0.50;;;9.00;99.90;;;;;;5015565;28;20060;-79
2023/12/24 03:52:23;;;;;;;1.25;0.55;;;9.00;99.90;;;;;;5012148;28;20136;-79
2023/12/24 03:54:49;;;;;;;2.10;0.55;;;9.00;99.90;;;;;;5021979;28;20406;-79
2023/12/24 03:57:16;;;;;;;0.77;0.50;;;9.00;99.90;;;;;;4993529;28;20418;-80
2023/12/24 03:59:43;;;;;;;0.52;0.40;;;9.00;99.90;;;;;;5019684;28;20105;-78
2023/12/24 04:02:09;;;;;;;2.08;0.40;;;9.00;99.90;;;;;;5011746;28;20046;-79
2023/12/24 04:04:36;;;;;;;0.90;0.55;;;9.00;99.90;;;;;;5004390;28;20049;-79
2023/12/24 04:07:03;;;;;;;1.33;0.40;;;9.00;99.90;;;;;;5015908;28;20077;-78
2023/12/24 04:09:31;;;;;;;0.50;0.40;;;9.00;99.90;;;;;;5017978;28;20109;-78
2023/12/24 04:11:58;;;;;;;0.70;0.60;;;9.00;99.90;;;;;;5014063;28;20060;-78
2023/12/24 04:14:25;;;;;;;0.40;0.40;;;9.00;99.90;;;;;;5002882;28;20055;-78
2023/12/24 04:16:51;;;;;;;0.55;0.50;;;9.00;99.90;;;;;;5004130;28;20050;-80
2023/12/24 04:19:18;;;;;;;1.05;0.30;;;9.00;99.90;;;;;;5014692;28;20437;-79
2023/12/24 04:21:45;;;;;;;1.40;0.50;;;9.00;99.90;;;;;;5013627;28;20116;-79
2023/12/24 04:24:12;;;;;;;2.17;0.60;;;9.00;99.90;;;;;;5015010;28;20129;-76
2023/12/24 04:26:39;;;;;;;0.60;0.40;;;9.00;99.90;;;;;;5010127;28;20046;-79
2023/12/24 04:29:05;;;;;;;0.50;0.50;;;9.00;99.90;;;;;;5013483;28;20081;-79
2023/12/24 04:31:32;;;;;;;1.77;0.45;;;9.00;99.90;;;;;;5015732;28;20045;-78
2023/12/24 04:33:59;;;;;;;0.55;0.40;;;9.10;99.90;;;;;;5011668;28;20476;-78
2023/12/24 04:36:26;;;;;;;0.73;0.50;;;9.00;99.90;;;;;;5014714;28;20077;-79
2023/12/24 04:38:52;;;;;;;1.13;0.40;;;9.10;99.90;;;;;;5010324;28;20527;-78
2023/12/24 04:41:19;;;;;;;0.60;0.38;;;9.10;99.90;;;;;;5018495;28;20490;-78
2023/12/24 04:43:46;;;;;;;0.40;0.40;;;9.00;99.90;;;;;;5005687;28;20054;-79
2023/12/24 04:46:13;;;;;;;1.15;0.45;;;9.00;99.90;;;;;;5018013;28;20462;-78
2023/12/24 04:48:39;;;;;;;0.30;0.30;;;9.00;99.90;;;;;;5005595;28;20569;-78
2023/12/24 04:51:06;;;;;;;0.52;0.50;;;9.00;99.90;;;;;;5012386;28;20123;-79
2023/12/24 04:53:33;;;;;;;0.52;0.40;;;9.00;99.90;;;;;;5020183;28;20050;-78
2023/12/24 04:56:00;;;;;;;1.10;0.70;;;9.00;99.90;;;;;;5016310;28;20076;-79
2023/12/24 04:58:27;;;;;;;2.10;0.80;;;9.00;99.90;;;;;;5012163;28;20046;-79
2023/12/24 05:00:53;;;;;;;1.92;0.90;;;9.00;99.90;;;;;;5016202;28;20150;-78
2023/12/24 05:03:20;;;;;;;3.72;1.60;;;9.00;99.90;;;;;;5019500;28;20048;-79
2023/12/24 05:05:47;;;;;;;3.75;1.10;;;9.00;99.90;;;;;;5010929;28;20050;-78
2023/12/24 05:08:14;;;;;;;2.72;1.40;;;9.00;99.90;;;;;;5016075;28;20049;-78
2023/12/24 05:10:41;;;;;;;1.52;0.52;;;9.00;99.90;;;;;;5010037;28;20046;-79
2023/12/24 05:13:11;;;;;;;1.23;0.40;;;9.00;99.90;;;;;;5011322;28;20042;-79
2023/12/24 05:15:38;;;;;;;0.45;0.40;;;9.00;99.90;;;;;;5005393;28;20088;-78
2023/12/24 05:18:04;;;;;;;0.70;0.43;;;9.00;99.90;;;;;;5020404;28;20160;-79
2023/12/24 05:20:31;;;;;;;0.75;0.47;;;9.00;99.90;;;;;;4995411;28;20054;-78
2023/12/24 05:22:58;;;;;;;1.00;0.40;;;9.00;99.90;;;;;;5017919;28;20056;-79
2023/12/24 05:25:25;;;;;;;0.30;0.30;;;9.00;99.90;;;;;;5006338;28;20050;-78
2023/12/24 05:27:51;;;;;;;0.30;0.30;;;9.00;99.90;;;;;;5015003;28;20050;-78
2023/12/24 05:30:18;;;;;;;0.20;0.20;;;9.00;99.90;;;;;;5010572;28;20132;-78
2023/12/24 05:32:45;;;;;;;1.42;0.50;;;9.00;99.90;;;;;;5013102;28;20058;-78
2023/12/24 05:35:12;;;;;;;0.30;0.30;;;9.00;99.90;;;;;;5010413;28;20382;-79
2023/12/24 05:37:39;;;;;;;0.30;0.30;;;9.00;99.90;;;;;;5011809;28;20053;-78
2023/12/24 05:40:06;;;;;;;0.30;0.30;;;9.00;99.90;;;;;;5015336;28;20480;-78
2023/12/24 05:42:33;;;;;;;0.38;0.38;;;9.10;99.90;;;;;;5011017;28;20053;-78
2023/12/24 05:45:00;;;;;;;1.65;0.40;;;9.00;99.90;;;;;;5013807;28;20568;-79
2023/12/24 05:47:26;;;;;;;0.32;0.30;;;9.10;99.90;;;;;;5003531;28;20065;-78
2023/12/24 05:49:53;;;;;;;0.40;0.40;;;9.10;99.90;;;;;;5010290;28;20050;-78
2023/12/24 05:52:20;;;;;;;1.65;0.68;;;9.10;99.90;;;;;;5009551;28;20553;-78
2023/12/24 05:54:47;;;;;;;1.05;0.50;;;9.10;99.90;;;;;;5000956;28;20081;-78
2023/12/24 05:57:14;;;;;;;1.35;0.57;;;9.10;99.90;;;;;;5009338;28;20129;-77
2023/12/24 05:59:40;;;;;;;0.38;0.38;;;9.10;99.90;;;;;;5010468;28;20099;-79
2023/12/24 06:02:07;;;;;;;0.20;0.20;;;9.10;99.90;;;;;;4995151;28;20091;-78
2023/12/24 06:04:34;;;;;;;0.40;0.30;;;9.10;99.90;;;;;;5014426;28;20049;-78
2023/12/24 06:07:01;;;;;;;0.30;0.30;;;9.10;99.90;;;;;;5013811;28;20057;-79
2023/12/24 06:09:28;;;;;;;0.47;0.30;;;9.00;99.90;;;;;;5014894;28;20060;-79
2023/12/24 06:11:54;;;;;;;1.08;0.40;;;9.00;99.90;;;;;;5007826;28;20444;-78
2023/12/24 06:14:21;;;;;;;1.02;0.50;;;9.00;99.90;;;;;;4994175;28;20061;-80
2023/12/24 06:16:48;;;;;;;1.58;0.73;;;9.00;99.90;;;;;;5013241;28;20528;-78
2023/12/24 06:19:15;;;;;;;0.40;0.30;;;8.90;99.90;;;;;;5013620;28;20076;-79
2023/12/24 06:21:44;;;;;;;0.52;0.35;;;8.90;99.90;;;;;;5008338;28;20128;-77
2023/12/24 06:24:11;;;;;;;1.85;0.60;;;8.90;99.90;;;;;;5015129;28;20077;-79
2023/12/24 06:26:37;;;;;;;0.60;0.30;;;8.90;99.90;;;;;;5015112;28;20108;-79
2023/12/24 06:29:04;;;;;;;0.40;0.40;;;8.90;99.90;;;;;;5010415;28;20058;-79
2023/12/24 06:31:31;;;;;;;0.50;0.50;;;8.90;99.90;;;;;;4996796;28;20049;-78
2023/12/24 06:33:58;;;;;;;0.40;0.40;;;8.80;99.90;;;;;;5008942;28;20081;-80
2023/12/24 06:36:25;;;;;;;0.32;0.30;;;8.80;99.90;;;;;;5014973;28;20042;-78
2023/12/24 06:38:51;;;;;;;1.30;0.47;;;8.80;99.90;;;;;;5006544;28;20074;-78
2023/12/24 06:41:18;;;;;;;0.40;0.40;;;8.80;99.90;;;;;;4999751;28;20054;-79
2023/12/24 06:43:45;;;;;;;1.02;0.50;;;8.70;99.90;;;;;;5006130;28;20046;-78
2023/12/24 06:46:12;;;;;;;0.50;0.50;;;8.70;99.90;;;;;;5018181;28;20096;-78
2023/12/24 06:48:39;;;;;;;1.08;0.50;;;8.70;99.90;;;;;;5011574;28;20050;-78
2023/12/24 06:51:07;;;;;;;0.45;0.40;;;8.70;99.90;;;;;;5015072;28;20054;-80
2023/12/24 06:53:34;;;;;;;1.45;0.60;;;8.70;99.90;;;;;;4993051;28;20494;-79
2023/12/24 06:56:02;;;;;;;0.60;0.50;;;8.70;99.90;;;;;;5013095;28;20042;-78
2023/12/24 06:58:29;;;;;;;0.40;0.40;;;8.60;99.90;;;;;;5009032;28;20049;-78
2023/12/24 07:00:56;;;;;;;2.75;0.40;;;8.60;99.90;;;;;;5010039;28;20046;-79
2023/12/24 07:03:23;;;;;;;0.63;0.50;;;8.60;99.90;;;;;;5014869;28;20075;-78
2023/12/24 07:05:49;;;;;;;0.30;0.30;;;8.60;99.90;;;;;;5008939;28;20058;-78
2023/12/24 07:08:16;;;;;;;2.97;0.50;;;8.60;99.90;;;;;;5014128;28;20057;-79
2023/12/24 07:10:43;;;;;;;0.40;0.40;;;8.60;99.90;;;;;;5008278;28;20054;-79
2023/12/24 07:13:10;;;;;;;0.50;0.50;;;8.60;99.90;;;;;;5023568;28;20081;-78
2023/12/24 07:15:42;;;;;;;0.70;0.40;;;8.60;99.90;;;;;;5010654;28;20046;-78
2023/12/24 07:18:09;;;;;;;0.70;0.65;;;8.70;99.90;;;;;;5021386;28;20042;-77
2023/12/24 07:20:36;;;;;;;0.57;0.50;;;8.70;99.90;;;;;;4996878;28;20046;-78
2023/12/24 07:23:03;;;;;;;1.20;0.60;;;8.80;99.90;;;;;;5001935;28;20061;-79
2023/12/24 07:25:29;;;;;;;2.22;0.68;;;8.90;99.90;;;;;;5008638;28;20145;-78
2023/12/24 07:27:56;;;;;;;3.10;0.50;;;8.90;99.90;;;;;;5018153;28;20050;-79
2023/12/24 07:30:23;;;;;;;1.50;0.50;;;8.90;99.90;;;;;;4998684;28;20053;-80
2023/12/24 07:32:50;;;;;;;0.82;0.55;;;9.00;99.90;;;;;;5015163;28;20061;-79
2023/12/24 07:35:17;;;;;;;0.55;0.55;;;9.00;99.90;;;;;;5019115;28;20045;-79
2023/12/24 07:37:45;;;;;;;0.50;0.50;;;9.10;99.90;;;;;;5013677;28;20248;-79
2023/12/24 07:40:12;;;;;;;4.18;0.70;;;9.10;99.90;;;;;;5016554;28;20099;-79
2023/12/24 07:42:38;;;;;;;0.63;0.50;;;9.10;99.90;;;;;;4999867;28;20081;-77
2023/12/24 07:45:06;;;;;;;0.50;0.50;;;9.10;99.90;;;;;;5016412;28;20081;-79
2023/12/24 07:47:32;;;;;;;0.52;0.50;;;9.20;99.90;;;;;;5011861;28;20042;-77
2023/12/24 07:49:59;;;;;;;1.02;0.80;;;9.20;99.90;;;;;;5020468;28;20130;-80
2023/12/24 07:52:26;;;;;;;0.55;0.50;;;9.20;99.90;;;;;;5014764;28;20052;-79
2023/12/24 07:54:53;;;;;;;0.98;0.70;;;9.20;99.90;;;;;;5019091;28;20050;-78
2023/12/24 07:57:20;;;;;;;0.52;0.52;;;9.30;99.90;;;;;;4995718;28;20074;-78
2023/12/24 07:59:46;;;;;;;1.40;0.70;;;9.30;99.90;;;;;;5020433;28;20334;-78
2023/12/24 08:02:13;;;;;;;0.50;0.50;;;9.30;99.90;;;;;;5012170;28;20181;-80
2023/12/24 08:04:40;;;;;;;1.70;0.50;;;9.30;99.90;;;;;;4999774;28;20524;-78
2023/12/24 08:07:07;;;;;;;1.20;0.80;;;9.40;99.90;;;;;;5016128;28;20111;-79
2023/12/24 08:09:34;;;;;;;0.70;0.60;;;9.40;99.90;;;;;;4999721;28;20506;-78
2023/12/24 08:12:01;;;;;;;1.15;0.60;;;9.40;99.90;;;;;;5017391;28;20135;-78
2023/12/24 08:14:27;;;;;;;1.13;0.60;;;9.40;99.90;;;;;;5015108;28;20147;-79
2023/12/24 08:16:54;;;;;;;1.55;0.70;;;9.50;99.90;;;;;;5013061;28;20050;-79
2023/12/24 08:19:21;;;;;;;1.05;0.70;;;9.50;99.90;;;;;;5014737;28;20053;-78
2023/12/24 08:21:48;;;;;;;0.85;0.60;;;9.50;99.90;;;;;;5010275;28;20046;-78
2023/12/24 08:24:14;;;;;;;0.93;0.57;;;9.50;99.90;;;;;;5009794;28;20045;-78
2023/12/24 08:26:42;;;;;;;1.30;0.80;;;9.60;99.90;;;;;;5016489;28;20093;-79
2023/12/24 08:29:08;;;;;;;0.75;0.57;;;9.60;99.90;;;;;;5011535;28;20129;-77
2023/12/24 08:31:35;;;;;;;1.92;0.60;;;9.60;99.90;;;;;;5003386;28;20053;-79
2023/12/24 08:34:02;;;;;;;1.35;0.73;;;9.60;99.90;;;;;;5006670;28;20077;-80
2023/12/24 08:36:29;;;;;;;0.60;0.60;;;9.60;99.90;;;;;;5019933;28;20112;-78
2023/12/24 08:38:55;;;;;;;0.80;0.80;;;9.70;99.90;;;;;;5008543;28;20046;-79
2023/12/24 08:41:22;;;;;;;0.70;0.55;;;9.70;99.90;;;;;;5019141;28;20057;-79
2023/12/24 08:43:49;;;;;;;3.47;0.52;;;9.70;99.90;;;;;;5006349;28;20072;-78
2023/12/24 08:46:16;;;;;;;0.70;0.70;;;9.70;99.90;;;;;;4998510;28;20080;-78
2023/12/24 08:48:43;;;;;;;0.73;0.63;;;9.70;99.90;;;;;;5001702;28;20104;-78
2023/12/24 08:51:10;;;;;;;0.40;0.40;;;9.70;99.90;;;;;;5015807;28;20054;-78
2023/12/24 08:53:37;;;;;;;0.73;0.50;;;9.80;99.90;;;;;;5012316;28;20050;-80
2023/12/24 08:56:04;;;;;;;0.60;0.60;;;9.80;99.90;;;;;;5002399;28;20046;-79
2023/12/24 08:58:31;;;;;;;0.88;0.60;;;9.80;99.90;;;;;;5017477;28;20156;-78
2023/12/24 09:00:57;;;;;;;0.50;0.50;;;9.80;99.90;;;;;;5011478;28;20058;-79
2023/12/24 09:03:25;;;;;;;0.30;0.30;;;9.80;99.90;;;;;;5016999;28;20050;-78
2023/12/24 09:05:52;;;;;;;3.28;0.50;;;9.80;99.90;;;;;;5009993;28;20133;-80
2023/12/24 09:08:19;;;;;;;1.05;0.50;;;9.90;99.90;;;;;;5015519;28;20046;-78
2023/12/24 09:10:45;;;;;;;0.40;0.40;;;9.90;99.90;;;;;;5008945;28;20050;-80
2023/12/24 09:13:12;;;;;;;2.47;0.73;;;9.90;99.90;;;;;;5020080;28;20077;-78
2023/12/24 09:15:39;;;;;;;1.60;0.55;;;9.90;99.90;;;;;;5008375;28;20065;-78
2023/12/24 09:18:05;;;;;;;1.10;0.68;;;10.00;99.90;;;;;;5018403;28;20070;-79
2023/12/24 09:20:32;;;;;;;0.63;0.50;;;10.00;99.90;;;;;;5012409;28;20083;-79
2023/12/24 09:22:59;;;;;;;1.38;0.40;;;10.00;99.90;;;;;;5017464;28;20053;-79
2023/12/24 09:25:26;;;;;;;0.50;0.50;;;10.00;99.90;;;;;;4996523;28;20125;-79
2023/12/24 09:27:52;;;;;;;0.90;0.65;;;10.00;99.90;;;;;;5015256;28;20073;-78
2023/12/24 09:30:19;;;;;;;0.55;0.55;;;10.00;99.90;;;;;;5010768;28;20050;-79
2023/12/24 09:32:46;;;;;;;0.57;0.57;;;10.00;99.90;;;;;;5012463;28;20057;-78
2023/12/24 09:35:12;;;;;;;0.43;0.43;;;10.00;99.90;;;;;;5016028;28;20107;-79
2023/12/24 09:37:39;;;;;;;0.40;0.40;;;10.00;99.90;;;;;;5013796;28;20049;-79
2023/12/24 09:40:07;;;;;;;0.90;0.60;;;10.00;99.90;;;;;;5014617;28;20065;-80
2023/12/24 09:42:35;;;;;;;2.42;0.60;;;10.00;99.90;;;;;;4992599;28;20074;-79
2023/12/24 09:45:02;;;;;;;1.30;0.70;;;10.00;99.90;;;;;;5019925;28;20516;-80
2023/12/24 09:47:29;;;;;;;0.57;0.57;;;10.00;99.90;;;;;;5013294;28;20108;-80
2023/12/24 09:49:58;;;;;;;0.50;0.50;;;10.00;99.90;;;;;;5013432;28;20054;-79
2023/12/24 09:52:26;;;;;;;1.88;0.85;;;10.00;99.90;;;;;;5010455;28;20561;-80
2023/12/24 09:54:54;;;;;;;1.42;0.90;;;10.00;99.90;;;;;;5013434;28;20050;-80
2023/12/24 09:57:20;;;;;;;1.00;0.63;;;10.00;99.90;;;;;;5011407;28;20489;-80
2023/12/24 09:59:47;;;;;;;0.77;0.50;;;10.00;99.90;;;;;;5014541;28;20120;-80
2023/12/24 10:02:14;;;;;;;2.17;0.85;;;10.00;99.90;;;;;;5011746;28;20080;-80
2023/12/24 10:04:41;;;;;;;1.27;0.63;;;10.00;99.90;;;;;;5014760;28;20050;-79
2023/12/24 10:07:09;;;;;;;1.25;0.80;;;10.00;99.90;;;;;;5008155;28;20069;-78
2023/12/24 10:09:49;;;;;;;0.70;0.60;;;10.00;99.90;;;;;;4993708;28;20414;-80
2023/12/24 10:12:17;;;;;;;0.73;0.60;;;10.00;99.90;;;;;;5016633;28;20045;-80
2023/12/24 10:15:00;;;;;;;0.75;0.60;;;10.00;99.90;;;;;;5011581;28;20076;-79
2023/12/24 10:17:32;;;;;;;0.80;0.60;;;10.00;99.90;;;;;;5014450;28;20054;-79
2023/12/24 10:20:00;;;;;;;2.25;0.77;;;10.00;99.90;;;;;;5007037;28;20387;-77
2023/12/24 10:22:27;;;;;;;0.50;0.50;;;10.00;99.90;;;;;;5018896;28;20497;-78
2023/12/24 10:25:02;;;;;;;0.70;0.70;;;9.90;99.90;;;;;;5006850;28;20046;-79
2023/12/24 10:27:29;;;;;;;1.33;0.68;;;9.90;99.90;;;;;;5010215;28;20046;-79
2023/12/24 10:30:12;;;;;;;0.60;0.60;;;9.90;99.90;;;;;;5002821;28;20117;-78
2023/12/24 10:32:43;;;;;;;1.00;0.50;;;9.90;99.90;;;;;;5012968;28;20041;-79
2023/12/24 10:35:10;;;;;;;0.50;0.50;;;9.90;99.90;;;;;;5014329;28;20361;-80
2023/12/24 10:37:37;;;;;;;0.80;0.50;;;9.90;99.90;;;;;;5012178;28;20049;-79
2023/12/24 10:40:09;;;;;;;1.17;0.63;;;10.00;99.90;;;;;;5014537;28;20105;-78
2023/12/24 10:42:40;;;;;;;0.98;0.68;;;10.00;99.90;;;;;;5012828;28;20049;-79
2023/12/24 10:45:09;;;;;;;0.70;0.70;;;10.00;99.90;;;;;;5019545;28;20042;-79
2023/12/24 10:47:36;;;;;;;2.10;0.60;;;10.00;99.90;;;;;;5008926;28;20088;-80
2023/12/24 10:50:04;;;;;;;0.93;0.63;;;10.00;99.90;;;;;;5020691;28;20154;-79
2023/12/24 10:52:31;;;;;;;1.27;0.70;;;10.00;99.90;;;;;;5011172;28;20085;-79
2023/12/24 10:55:00;;;;;;;1.45;0.90;;;10.00;99.90;;;;;;5016434;28;20049;-79
2023/12/24 10:57:42;;;;;;;0.63;0.50;;;10.00;99.90;;;;;;5015460;28;20048;-79
2023/12/24 11:00:12;;;;;;;0.93;0.50;;;10.10;99.90;;;;;;5017199;28;20149;-79
2023/12/24 11:02:49;;;;;;;0.55;0.40;;;10.10;99.90;;;;;;5014436;28;20570;-80
2023/12/24 11:05:50;;;;;;;0.55;0.43;;;10.10;99.90;;;;;;5018720;28;20449;-79
2023/12/24 11:08:20;;;;;;;2.03;1.20;;;10.10;99.90;;;;;;5023100;28;20516;-79
2023/12/24 11:10:57;;;;;;;1.23;0.95;;;10.10;99.90;;;;;;5009754;28;20513;-79
2023/12/24 11:13:32;;;;;;;1.60;0.35;;;10.10;99.90;;;;;;5015392;28;20080;-79
2023/12/24 11:16:00;;;;;;;0.98;0.60;;;10.10;99.90;;;;;;4998753;28;20042;-78
2023/12/24 11:18:47;;;;;;;1.60;0.60;;;10.10;99.90;;;;;;5019638;28;20045;-79
2023/12/24 11:21:16;;;;;;;0.82;0.50;;;10.10;99.90;;;;;;5018344;28;20050;-80
2023/12/24 11:24:10;;;;;;;0.63;0.50;;;10.10;99.90;;;;;;5012465;28;20048;-80
2023/12/24 11:26:37;;;;;;;0.52;0.40;;;10.10;99.90;;;;;;5016628;28;20042;-78
2023/12/24 11:29:42;;;;;;;0.80;0.57;;;10.10;99.90;;;;;;5011978;28;20395;-80
2023/12/24 11:32:24;;;;;;;3.47;0.60;;;10.10;99.90;;;;;;5018101;28;20073;-79
2023/12/24 11:34:52;;;;;;;2.13;0.80;;;10.10;99.90;;;;;;5014144;28;20046;-80
2023/12/24 11:37:26;;;;;;;0.50;0.40;;;10.10;99.90;;;;;;5018126;28;20477;-78
2023/12/24 11:40:12;;;;;;;2.00;0.70;;;10.10;99.90;;;;;;5013666;28;20068;-79
2023/12/24 11:42:39;;;;;;;0.80;0.47;;;10.10;99.90;;;;;;5020526;28;20452;-78
2023/12/24 11:45:06;;;;;;;0.50;0.50;;;10.10;99.90;;;;;;5007957;28;20542;-79
2023/12/24 11:47:37;;;;;;;0.40;0.40;;;10.10;99.90;;;;;;5020965;28;20085;-79
2023/12/24 11:50:08;;;;;;;0.57;0.57;;;10.10;99.90;;;;;;5016604;28;20049;-78
2023/12/24 11:52:35;;;;;;;0.70;0.65;;;10.10;99.90;;;;;;5010389;28;20048;-78
2023/12/24 11:55:02;;;;;;;0.65;0.47;;;10.10;99.90;;;;;;5015524;28;20085;-78
2023/12/24 11:57:29;;;;;;;0.75;0.55;;;10.10;99.90;;;;;;5013037;28;20045;-79
2023/12/24 11:59:56;;;;;;;0.52;0.50;;;10.10;99.90;;;;;;5015767;28;20065;-79
2023/12/24 12:02:23;;;;;;;2.45;0.80;;;10.10;99.90;;;;;;5013524;28;20084;-77
2023/12/24 12:04:49;;;;;;;1.95;0.40;;;10.10;99.90;;;;;;5014743;28;20042;-78
2023/12/24 12:07:16;;;;;;;2.40;0.80;;;10.10;99.90;;;;;;5016649;28;20050;-78
2023/12/24 12:09:43;;;;;;;0.45;0.45;;;10.10;99.90;;;;;;4994328;28;20086;-78
2023/12/24 12:12:09;;;;;;;0.60;0.60;;;10.20;99.90;;;;;;5015549;28;20085;-78
2023/12/24 12:14:37;;;;;;;0.50;0.50;;;10.20;99.90;;;;;;5013434;28;20072;-80
2023/12/24 12:17:04;;;;;;;0.50;0.50;;;10.20;99.90;;;;;;5017670;28;20052;-77
2023/12/24 12:19:31;;;;;;;0.47;0.47;;;10.20;99.90;;;;;;5012636;28;20046;-79
2023/12/24 12:21:58;;;;;;;5.60;1.25;;;10.20;99.90;;;;;;5018008;28;20049;-78
2023/12/24 12:24:26;;;;;;;0.95;0.70;;;10.20;99.90;;;;;;5014788;28;20100;-79
2023/12/24 12:26:53;;;;;;;4.18;0.40;;;10.20;99.90;;;;;;5013319;28;20045;-79
2023/12/24 12:29:19;;;;;;;0.90;0.57;;;10.20;99.90;;;;;;5011414;28;20407;-78
2023/12/24 12:31:46;;;;;;;0.77;0.40;;;10.20;99.90;;;;;;5016678;28;20312;-79
2023/12/24 12:34:13;;;;;;;3.72;0.90;;;10.20;99.90;;;;;;5009444;28;20104;-78
2023/12/24 12:36:40;;;;;;;0.73;0.50;;;10.20;99.90;;;;;;5015942;28;20057;-78
2023/12/24 12:39:08;;;;;;;4.22;0.98;;;10.20;99.90;;;;;;5011470;28;20125;-79
2023/12/24 12:41:35;;;;;;;2.70;1.00;;;10.30;99.90;;;;;;5014586;28;20065;-79
2023/12/24 12:44:01;;;;;;;0.63;0.50;;;10.30;99.90;;;;;;4992441;28;20041;-79
2023/12/24 12:46:29;;;;;;;1.55;0.60;;;10.20;99.90;;;;;;5010685;28;20050;-79
2023/12/24 12:48:55;;;;;;;2.88;0.63;;;10.20;99.90;;;;;;5016158;28;20042;-78
2023/12/24 12:51:22;;;;;;;1.42;0.88;;;10.20;99.90;;;;;;4995212;28;20054;-79
2023/12/24 12:53:49;;;;;;;1.23;0.80;;;10.20;99.90;;;;;;5016623;28;20474;-79
2023/12/24 12:56:16;;;;;;;1.50;0.93;;;10.20;99.90;;;;;;5010139;28;20050;-80
2023/12/24 12:58:53;;;;;;;1.40;0.60;;;10.10;99.90;;;;;;5015846;28;20053;-77